Архив погоды в Рубцовске

Метеограмма Рубцовск
Четверг, 27 Июня
Время местн. Темп Ветер Видим Явления Облачность нижн/средн/верх Атм. давл. Влжн Точка росы ВНГО R Сост. почвы Tg s
Напр Скр Прв ур.ст ур.м изм
06:00 +12.9° С,С-В 1 - 20 км - переменная облачность 737 757 +0.2 88% +11° более 2.5 км 0 Сухая (без трещин) +11° -
03:00 +12° С-В 2 - 20 км - ясно 737 757 -0.8 91% +10.5° более 2.5 км - - - -
00:00 +13.8° С-В 2 - 20 км - ясно 738 757 -1 79% +10.2° более 2.5 км - - - -
Среда, 26 Июня
Время местн. Темп Ветер Видим Явления Облачность нижн/средн/верх Атм. давл. Влжн Точка росы ВНГО R Сост. почвы Tg s
Напр Скр Прв ур.ст ур.м изм
21:00 +19.3° В,С-В 1 - 20 км - переменная облачность 739 758 -0.8 53% +9.6° более 2.5 км - - - -
18:00 +24.7° В 2 - 20 км - ясно 740 758 -0.8 26% +3.9° более 2.5 км 0 - - -
15:00 +24.6° С-В 3 - 20 км - ясно 741 759 -1 30% +6° более 2.5 км - - - -
12:00 +22.8° В 3 - 20 км - незначительная облачность 741 760 -0.9 36% +7.1° более 2.5 км - - - -
09:00 +19.9° В,С-В 3 - 20 км - ясно 742 761 -0.2 49% +9° более 2.5 км - - - -
06:00 +12.3° С-В 2 - 20 км - переменная облачность 743 762 0 92% +11.1° более 2.5 км 0 Сухая (без трещин) +9° -
03:00 +11.3° С-В 1 - 20 км - переменная облачность 743 762 -0.5 93% +10.2° более 2.5 км - - - -
00:00 +15.1° В,Ю-В 2 - 20 км - переменная облачность 743 763 0 77% +11.1° более 2.5 км - - - -
Вторник, 25 Июня
Время местн. Темп Ветер Видим Явления Облачность нижн/средн/верх Атм. давл. Влжн Точка росы ВНГО R Сост. почвы Tg s
Напр Скр Прв ур.ст ур.м изм
21:00 +18.6° В 1 - 20 км - облачно 743 762 +0.4 62% +11.2° более 2.5 км - - - -
18:00 +23.5° В 3 - 20 км - переменная облачность 743 762 +0.4 41% +9.6° 1.5 км 0 - - -
15:00 +23.9° С 2 - 20 км - переменная облачность 742 761 +0.1 36% +8° 1.5 км - - - -
12:00 +22.6° С 3 - 20 км - переменная облачность 742 761 0 38% +7.7° 1.5 км - - - -
09:00 +18.8° Ю,Ю-З 1 - 20 км - переменная облачность 742 761 +0.5 62% +11.3° 1.5 км - - - -
06:00 +13.1° Ю 1 - 10 км - переменная облачность 742 761 +0.8 91% +11.6° более 2.5 км 0 Влажная (без луж) +10° -
03:00 +10.9° Ю 2 - 20 км - незначительная облачность 741 761 +0.3 95% +10.2° 1 км - - - -
00:00 +13.6° штиль 0 - 20 км - переменная облачность 741 760 +0.5 80% +10.3° 1 км - - - -
Понедельник, 24 Июня
Время местн. Темп Ветер Видим Явления Облачность нижн/средн/верх Атм. давл. Влжн Точка росы ВНГО R Сост. почвы Tg s
Напр Скр Прв ур.ст ур.м изм
21:00 +17.3° С-В 1 - 20 км осадки вдали станции переменная облачность 740 759 +0.4 61% +9.7° 1 км - - - -
18:00 +22.7° С 1 - 20 км - переменная облачность 740 759 -0.3 33% +5.5° 1 км 0 - - -
15:00 +21.1° З,С-З 1 10 20 км - переменная облачность 740 759 -0.8 37% +6° 1 км - - - -
12:00 +19.2° З 4 10 20 км - облачно 741 760 -1.1 44% +6.7° 1 км - - - -
09:00 +14.4° Ю,Ю-З 3 - 20 км - переменная облачность 742 762 0 73% +9.6° более 2.5 км - - - -
06:00 +8.2° Ю 4 - 20 км - облачно 742 762 +0.2 95% +7.5° 1 км 0 Влажная (без луж) +6° -
03:00 +8.5° Ю,Ю-З 2 - 20 км - облачно 742 762 -0.2 92% +7.2° более 2.5 км - - - -